Time;durP1;ratioP1;P1;durP2;ratioP2;P2;SDS_P1;SDS_P2;PMS_P1;PMS_P2;Temp;Humidity;BMP_temperature;BMP_pressure;BME280_temperature;BME280_humidity;BME280_pressure;Samples;Min_cycle;Max_cycle;Signal;HPM_P1;HPM_P2
2021/09/05 00:00:01;;;;;;;15.67;9.33;;;13.80;99.90;;;;;;5035576;28;20195;-82
2021/09/05 00:02:26;;;;;;;17.40;10.13;;;13.80;99.90;;;;;;5019251;28;20175;-81
2021/09/05 00:04:52;;;;;;;15.83;9.57;;;13.80;99.90;;;;;;5025240;28;20787;-79
2021/09/05 00:07:18;;;;;;;14.30;9.27;;;13.80;99.90;;;;;;5052371;28;20186;-81
2021/09/05 00:09:44;;;;;;;16.37;9.90;;;13.70;99.90;;;;;;5051585;28;20650;-78
2021/09/05 00:12:10;;;;;;;15.53;9.23;;;13.70;99.90;;;;;;5070865;28;20170;-79
2021/09/05 00:14:35;;;;;;;17.00;10.00;;;13.80;99.90;;;;;;5056873;28;20237;-81
2021/09/05 00:17:01;;;;;;;15.17;9.73;;;13.80;99.90;;;;;;5071191;28;20202;-82
2021/09/05 00:19:27;;;;;;;16.67;10.17;;;13.70;99.90;;;;;;5055615;28;20261;-79
2021/09/05 00:21:53;;;;;;;17.27;9.23;;;13.60;99.90;;;;;;5045910;28;20224;-82
2021/09/05 00:24:18;;;;;;;14.67;9.50;;;13.60;99.90;;;;;;5038889;28;20293;-82
2021/09/05 00:26:47;;;;;;;15.17;9.90;;;13.50;99.90;;;;;;5039556;28;20189;-82
2021/09/05 00:29:16;;;;;;;17.47;10.20;;;13.50;99.90;;;;;;5039610;28;20214;-81
2021/09/05 00:31:41;;;;;;;16.03;9.50;;;13.50;99.90;;;;;;5055434;28;20249;-82
2021/09/05 00:34:07;;;;;;;14.13;9.07;;;13.40;99.90;;;;;;5038755;28;20749;-82
2021/09/05 00:36:32;;;;;;;13.50;9.27;;;13.40;99.90;;;;;;5038990;28;20658;-81
2021/09/05 00:38:58;;;;;;;13.67;9.43;;;13.30;99.90;;;;;;5038869;28;20209;-82
2021/09/05 00:41:24;;;;;;;14.73;9.00;;;13.30;99.90;;;;;;5039149;28;20545;-82
2021/09/05 00:43:53;;;;;;;18.37;9.70;;;13.30;99.90;;;;;;5038836;28;20610;-83
2021/09/05 00:46:19;;;;;;;15.57;9.47;;;13.30;99.90;;;;;;5038565;28;20170;-81
2021/09/05 00:48:45;;;;;;;15.83;9.70;;;13.20;99.90;;;;;;5054259;28;20170;-81
2021/09/05 00:51:10;;;;;;;16.70;10.30;;;13.20;99.90;;;;;;5037589;28;20531;-81
2021/09/05 00:53:36;;;;;;;19.63;9.90;;;13.20;99.90;;;;;;5037679;28;20202;-82
2021/09/05 00:56:02;;;;;;;15.43;9.73;;;13.20;99.90;;;;;;5037167;28;20190;-81
2021/09/05 00:58:30;;;;;;;13.37;9.00;;;13.10;99.90;;;;;;5037148;28;20720;-82
2021/09/05 01:00:55;;;;;;;15.83;9.63;;;13.10;99.90;;;;;;5037587;28;20174;-82
2021/09/05 01:03:21;;;;;;;14.70;8.93;;;13.00;99.90;;;;;;5038085;28;20174;-82
2021/09/05 01:05:47;;;;;;;15.53;8.67;;;13.00;99.90;;;;;;5038464;28;20195;-83
2021/09/05 01:08:12;;;;;;;15.07;9.67;;;13.00;99.90;;;;;;5038487;28;20185;-82
2021/09/05 01:10:38;;;;;;;15.90;9.63;;;12.90;99.90;;;;;;5038150;28;20204;-82
2021/09/05 01:13:03;;;;;;;14.90;9.30;;;12.90;99.90;;;;;;5054690;28;20178;-82
2021/09/05 01:15:29;;;;;;;14.13;9.00;;;12.80;99.90;;;;;;5037707;28;20685;-82
2021/09/05 01:17:54;;;;;;;16.57;9.17;;;12.80;99.90;;;;;;5037527;28;20590;-82
2021/09/05 01:20:20;;;;;;;15.20;9.53;;;12.80;99.90;;;;;;5054033;28;20620;-82
2021/09/05 01:22:45;;;;;;;17.13;8.97;;;12.80;99.90;;;;;;5040395;28;20645;-81
2021/09/05 01:25:11;;;;;;;14.30;8.67;;;12.80;99.90;;;;;;5041127;28;20224;-81
2021/09/05 01:27:37;;;;;;;14.80;9.27;;;12.80;99.90;;;;;;5041183;28;20552;-83
2021/09/05 01:30:03;;;;;;;14.23;9.07;;;12.80;99.90;;;;;;5040935;28;20316;-82
2021/09/05 01:32:29;;;;;;;15.80;9.43;;;12.70;99.90;;;;;;5041237;28;20178;-82
2021/09/05 01:34:55;;;;;;;11.40;8.47;;;12.70;99.90;;;;;;5041577;28;20198;-81
2021/09/05 01:37:20;;;;;;;13.23;8.50;;;12.70;99.90;;;;;;5041846;28;20179;-82
2021/09/05 01:39:46;;;;;;;14.63;8.87;;;12.60;99.90;;;;;;5040886;28;20213;-82
2021/09/05 01:42:11;;;;;;;15.03;8.80;;;12.60;99.90;;;;;;5058359;28;20171;-80
2021/09/05 01:44:37;;;;;;;13.43;8.30;;;12.60;99.90;;;;;;5041705;28;20256;-82
2021/09/05 01:47:03;;;;;;;15.07;8.67;;;12.60;99.90;;;;;;5041017;28;20250;-82
2021/09/05 01:49:28;;;;;;;12.40;8.60;;;12.50;99.90;;;;;;5057368;28;20183;-81
2021/09/05 01:51:54;;;;;;;13.33;8.60;;;12.50;99.90;;;;;;5057895;28;20634;-80
2021/09/05 01:54:19;;;;;;;14.37;8.77;;;12.50;99.90;;;;;;5041315;28;20294;-82
2021/09/05 01:56:45;;;;;;;15.43;8.60;;;12.50;99.90;;;;;;5041089;28;20280;-82
2021/09/05 01:59:11;;;;;;;13.83;8.73;;;12.50;99.90;;;;;;5040664;28;20240;-82
2021/09/05 02:01:36;;;;;;;15.13;9.13;;;12.50;99.90;;;;;;5040979;28;20178;-81
2021/09/05 02:04:04;;;;;;;15.07;8.70;;;12.50;99.90;;;;;;5058101;28;20197;-82
2021/09/05 02:06:30;;;;;;;16.50;9.10;;;12.50;99.90;;;;;;5041444;28;20174;-82
2021/09/05 02:08:56;;;;;;;14.67;8.87;;;12.50;99.90;;;;;;5056911;28;20285;-81
2021/09/05 02:11:21;;;;;;;12.27;8.37;;;12.50;99.90;;;;;;5040856;28;20186;-82
2021/09/05 02:13:47;;;;;;;13.83;8.47;;;12.50;99.90;;;;;;5057588;28;20178;-82
2021/09/05 02:16:13;;;;;;;13.10;8.73;;;12.50;99.90;;;;;;5057798;28;20258;-82
2021/09/05 02:18:38;;;;;;;14.53;8.30;;;12.40;99.90;;;;;;5040605;28;20673;-80
2021/09/05 02:21:04;;;;;;;13.73;8.43;;;12.40;99.90;;;;;;5040633;28;20179;-82
2021/09/05 02:23:29;;;;;;;12.90;8.40;;;12.30;99.90;;;;;;5041306;28;20185;-82
2021/09/05 02:25:55;;;;;;;14.37;8.23;;;12.30;99.90;;;;;;5047457;28;20217;-81
2021/09/05 02:28:21;;;;;;;13.97;8.33;;;12.20;99.90;;;;;;5065594;28;20178;-81
2021/09/05 02:30:46;;;;;;;14.20;8.30;;;12.20;99.90;;;;;;5065629;28;20190;-82
2021/09/05 02:33:12;;;;;;;13.40;8.97;;;12.20;99.90;;;;;;5044866;28;20293;-83
2021/09/05 02:35:37;;;;;;;12.23;8.43;;;12.20;99.90;;;;;;5040993;28;20202;-82
2021/09/05 02:38:03;;;;;;;13.47;8.80;;;12.10;99.90;;;;;;5057287;28;20228;-81
2021/09/05 02:40:29;;;;;;;13.33;8.63;;;12.10;99.90;;;;;;5040087;28;20292;-82
2021/09/05 02:42:55;;;;;;;13.33;8.30;;;12.10;99.90;;;;;;5040216;28;20181;-80
2021/09/05 02:45:21;;;;;;;13.77;8.43;;;12.00;99.90;;;;;;5039948;28;20194;-82
2021/09/05 02:47:46;;;;;;;14.53;8.50;;;12.10;99.90;;;;;;5039682;28;20182;-81
2021/09/05 02:50:12;;;;;;;15.83;8.00;;;12.00;99.90;;;;;;5039636;28;20244;-82
2021/09/05 02:52:37;;;;;;;13.17;8.40;;;12.00;99.90;;;;;;5055804;28;20661;-80
2021/09/05 02:55:03;;;;;;;14.93;8.70;;;12.00;99.90;;;;;;5038757;28;20708;-82
2021/09/05 02:57:29;;;;;;;14.03;8.80;;;12.00;99.90;;;;;;5055805;28;20677;-82
2021/09/05 02:59:54;;;;;;;12.50;8.07;;;12.00;99.90;;;;;;5038793;28;20213;-80
2021/09/05 03:02:20;;;;;;;13.87;8.80;;;12.00;99.90;;;;;;5053995;28;20179;-80
2021/09/05 03:04:45;;;;;;;16.73;8.80;;;12.10;99.90;;;;;;5037354;28;20190;-80
2021/09/05 03:07:11;;;;;;;14.97;8.33;;;12.10;99.90;;;;;;5037290;28;20185;-80
2021/09/05 03:09:37;;;;;;;14.53;8.13;;;12.10;99.90;;;;;;5053484;28;20178;-80
2021/09/05 03:12:03;;;;;;;15.10;8.10;;;12.00;99.90;;;;;;5054013;28;20209;-80
2021/09/05 03:14:29;;;;;;;14.50;8.53;;;12.00;99.90;;;;;;5037560;28;20209;-80
2021/09/05 03:16:55;;;;;;;13.03;8.50;;;12.00;99.90;;;;;;5054983;28;20182;-80
2021/09/05 03:19:21;;;;;;;13.53;8.60;;;11.90;99.90;;;;;;5038328;28;20198;-80
2021/09/05 03:21:46;;;;;;;15.77;8.90;;;11.90;99.90;;;;;;5038947;28;20312;-81
2021/09/05 03:24:12;;;;;;;15.20;9.27;;;11.90;99.90;;;;;;5055887;28;20201;-80
2021/09/05 03:26:38;;;;;;;17.20;8.93;;;11.90;99.90;;;;;;5038644;28;20248;-81
2021/09/05 03:29:03;;;;;;;17.73;9.00;;;11.80;99.90;;;;;;5038993;28;20566;-80
2021/09/05 03:31:29;;;;;;;14.90;8.83;;;11.80;99.90;;;;;;5038728;28;20186;-79
2021/09/05 03:33:55;;;;;;;12.77;8.17;;;11.80;99.90;;;;;;5053009;28;20181;-80
2021/09/05 03:36:20;;;;;;;14.50;8.00;;;11.80;99.90;;;;;;5036156;28;20649;-82
2021/09/05 03:38:46;;;;;;;15.07;8.70;;;11.80;99.90;;;;;;5037010;28;20228;-82
2021/09/05 03:41:11;;;;;;;13.40;8.63;;;11.80;99.90;;;;;;5038086;28;20179;-82
2021/09/05 03:43:37;;;;;;;17.63;9.07;;;11.70;99.90;;;;;;5037877;28;20175;-82
2021/09/05 03:46:02;;;;;;;14.77;8.13;;;11.70;99.90;;;;;;5037839;28;20206;-81
2021/09/05 03:48:28;;;;;;;15.40;8.53;;;11.70;99.90;;;;;;5038296;28;20281;-82
2021/09/05 03:50:54;;;;;;;14.97;8.73;;;11.70;99.90;;;;;;5038744;28;20209;-81
2021/09/05 03:53:19;;;;;;;15.27;8.83;;;11.70;99.90;;;;;;5038308;28;20178;-80
2021/09/05 03:55:45;;;;;;;15.67;9.10;;;11.70;99.90;;;;;;5037622;28;20190;-79
2021/09/05 03:58:10;;;;;;;13.97;8.40;;;11.60;99.90;;;;;;5035551;28;20182;-78
2021/09/05 04:00:36;;;;;;;14.07;8.93;;;11.60;99.90;;;;;;5035143;28;20210;-79
2021/09/05 04:03:02;;;;;;;14.80;8.30;;;11.60;99.90;;;;;;5051617;28;20551;-79
2021/09/05 04:05:27;;;;;;;15.00;8.87;;;11.50;99.90;;;;;;5035122;28;20197;-80
2021/09/05 04:10:34;;;;;;;15.43;8.53;;;11.50;99.90;;;;;;5052097;28;20272;-79
2021/09/05 04:13:00;;;;;;;16.23;8.57;;;11.50;99.90;;;;;;5051938;28;20174;-79
2021/09/05 04:15:26;;;;;;;17.10;8.87;;;11.40;99.90;;;;;;5051844;28;20220;-80
2021/09/05 04:17:52;;;;;;;14.90;8.80;;;11.40;99.90;;;;;;5035487;28;20555;-80
2021/09/05 04:20:17;;;;;;;16.70;9.30;;;11.40;99.90;;;;;;5034817;28;20206;-81
2021/09/05 04:22:43;;;;;;;14.83;8.90;;;11.40;99.90;;;;;;5035167;28;20178;-80
2021/09/05 04:25:09;;;;;;;18.23;9.43;;;11.40;99.90;;;;;;5035154;28;20202;-78
2021/09/05 04:27:35;;;;;;;12.93;8.53;;;11.40;99.90;;;;;;5052192;28;20589;-79
2021/09/05 04:30:00;;;;;;;17.20;8.37;;;11.40;99.90;;;;;;5034795;28;20203;-79
2021/09/05 04:32:26;;;;;;;16.20;8.93;;;11.30;99.90;;;;;;5051776;28;20228;-79
2021/09/05 04:34:52;;;;;;;14.30;9.40;;;11.30;99.90;;;;;;5051463;28;20205;-82
2021/09/05 04:37:17;;;;;;;16.17;9.03;;;11.30;99.90;;;;;;5034863;28;20242;-78
2021/09/05 04:39:43;;;;;;;15.83;8.47;;;11.30;99.90;;;;;;5051371;28;20205;-79
2021/09/05 04:42:10;;;;;;;14.87;8.77;;;11.30;99.90;;;;;;5034644;28;20182;-80
2021/09/05 04:44:36;;;;;;;17.67;9.43;;;11.20;99.90;;;;;;5034971;28;20190;-80
2021/09/05 04:47:02;;;;;;;14.73;8.70;;;11.20;99.90;;;;;;5031120;28;20182;-79
2021/09/05 04:49:27;;;;;;;12.77;8.20;;;11.20;99.90;;;;;;5031191;28;20184;-79
2021/09/05 04:51:53;;;;;;;16.23;8.83;;;11.20;99.90;;;;;;5031606;28;20175;-79
2021/09/05 04:54:19;;;;;;;16.10;8.70;;;11.10;99.90;;;;;;5031515;28;20195;-80
2021/09/05 04:56:44;;;;;;;15.73;9.07;;;11.10;99.90;;;;;;5034673;28;20178;-82
2021/09/05 04:59:10;;;;;;;13.60;8.50;;;11.10;99.90;;;;;;5035465;28;20630;-78
2021/09/05 05:01:36;;;;;;;15.33;9.07;;;11.10;99.90;;;;;;5035715;28;20278;-77
2021/09/05 05:04:01;;;;;;;14.83;8.03;;;11.10;99.90;;;;;;5035332;28;20198;-79
2021/09/05 05:06:27;;;;;;;14.00;8.80;;;11.10;99.90;;;;;;5035245;28;20175;-77
2021/09/05 05:08:52;;;;;;;18.57;8.83;;;11.10;99.90;;;;;;5034768;28;20597;-79
2021/09/05 05:11:18;;;;;;;14.33;9.20;;;11.00;99.90;;;;;;5035044;28;20526;-77
2021/09/05 05:13:44;;;;;;;13.27;8.93;;;11.00;99.90;;;;;;5035122;28;20616;-79
2021/09/05 05:16:09;;;;;;;21.33;9.40;;;11.10;99.90;;;;;;5035359;28;20194;-79
2021/09/05 05:18:35;;;;;;;14.17;8.73;;;11.10;99.90;;;;;;5035130;28;20525;-80
2021/09/05 05:21:00;;;;;;;16.03;9.20;;;11.20;99.90;;;;;;5035296;28;20202;-79
2021/09/05 05:23:26;;;;;;;16.93;9.50;;;11.30;99.90;;;;;;5018843;28;20512;-78
2021/09/05 05:25:52;;;;;;;14.30;8.63;;;11.30;99.90;;;;;;5018954;28;20194;-78
2021/09/05 05:28:18;;;;;;;14.93;9.40;;;11.30;99.90;;;;;;5035541;28;20167;-79
2021/09/05 05:30:43;;;;;;;13.53;8.97;;;11.40;99.90;;;;;;5034850;28;20579;-79
2021/09/05 05:33:09;;;;;;;14.57;9.00;;;11.40;99.90;;;;;;5035209;28;20270;-79
2021/09/05 05:35:34;;;;;;;16.73;8.57;;;11.50;99.90;;;;;;5034978;28;20206;-78
2021/09/05 05:38:00;;;;;;;16.70;9.07;;;11.50;99.90;;;;;;5034328;28;20186;-78
2021/09/05 05:40:26;;;;;;;17.30;9.20;;;11.60;99.90;;;;;;5017945;28;20207;-79
2021/09/05 05:42:52;;;;;;;15.00;9.47;;;11.60;99.90;;;;;;5034786;28;20265;-79
2021/09/05 05:45:18;;;;;;;18.20;9.27;;;11.70;99.90;;;;;;5034671;28;20218;-79
2021/09/05 05:47:44;;;;;;;15.50;8.70;;;11.80;99.90;;;;;;5035070;28;20185;-78
2021/09/05 05:50:09;;;;;;;14.87;9.07;;;11.80;99.90;;;;;;5034500;28;20621;-78
2021/09/05 05:52:35;;;;;;;15.50;9.17;;;11.90;99.90;;;;;;5034395;28;20183;-78
2021/09/05 05:55:01;;;;;;;14.27;8.50;;;12.00;99.90;;;;;;5034452;28;20244;-78
2021/09/05 05:57:27;;;;;;;14.80;8.50;;;12.20;99.90;;;;;;5017878;28;20190;-77
2021/09/05 05:59:53;;;;;;;13.53;8.13;;;12.40;99.90;;;;;;5017632;28;20744;-78
2021/09/05 06:02:18;;;;;;;13.33;8.07;;;12.70;99.90;;;;;;5017957;28;20660;-77
2021/09/05 06:04:44;;;;;;;13.67;7.93;;;12.90;99.90;;;;;;5018106;28;20229;-78
2021/09/05 06:07:10;;;;;;;13.33;8.17;;;13.20;99.90;;;;;;5033670;28;20209;-78
2021/09/05 06:09:38;;;;;;;14.23;7.83;;;13.40;99.90;;;;;;5018076;28;20223;-78
2021/09/05 06:12:05;;;;;;;11.03;7.50;;;13.80;99.90;;;;;;5035336;28;20175;-81
2021/09/05 06:14:31;;;;;;;11.90;7.83;;;14.10;99.90;;;;;;5017529;28;20690;-80
2021/09/05 06:16:56;;;;;;;13.47;7.47;;;14.20;99.90;;;;;;5018342;28;20193;-81
2021/09/05 06:19:22;;;;;;;12.30;7.77;;;14.10;99.90;;;;;;5017865;28;20234;-79
2021/09/05 06:21:48;;;;;;;13.60;7.80;;;14.00;99.90;;;;;;5034978;28;20647;-79
2021/09/05 06:24:13;;;;;;;12.33;7.57;;;14.10;99.90;;;;;;5017725;28;20202;-79
2021/09/05 06:26:39;;;;;;;10.63;7.37;;;14.40;99.90;;;;;;5017982;28;20237;-79
2021/09/05 06:29:05;;;;;;;13.07;7.67;;;14.90;99.90;;;;;;5017169;28;20194;-79
2021/09/05 06:31:31;;;;;;;10.43;6.70;;;15.50;99.90;;;;;;5036969;28;20190;-79
2021/09/05 06:33:56;;;;;;;11.20;7.30;;;16.40;99.90;;;;;;5028655;28;20218;-79
2021/09/05 06:36:22;;;;;;;11.47;6.57;;;17.20;99.90;;;;;;5018220;28;20202;-79
2021/09/05 06:38:48;;;;;;;10.30;7.10;;;17.90;99.90;;;;;;5031912;28;20652;-79
2021/09/05 06:41:14;;;;;;;9.53;7.13;;;18.40;99.90;;;;;;5017847;28;20183;-79
2021/09/05 06:43:39;;;;;;;10.03;6.43;;;18.90;99.90;;;;;;5033320;28;20229;-79
2021/09/05 06:46:05;;;;;;;11.07;6.47;;;18.90;99.90;;;;;;5017663;28;20182;-79
2021/09/05 06:48:31;;;;;;;10.17;6.50;;;18.90;99.90;;;;;;5018214;28;20569;-83
2021/09/05 06:50:57;;;;;;;10.73;6.77;;;18.90;99.90;;;;;;5021917;28;20747;-83
2021/09/05 06:53:22;;;;;;;13.40;7.20;;;19.30;99.90;;;;;;5008739;28;20191;-85
2021/09/05 06:55:48;;;;;;;14.67;6.97;;;19.70;99.90;;;;;;5023082;28;20277;-83
2021/09/05 06:58:14;;;;;;;13.13;7.77;;;20.00;99.90;;;;;;5002811;28;20189;-83
2021/09/05 07:00:40;;;;;;;10.13;6.43;;;20.00;99.90;;;;;;5002866;28;20245;-84
2021/09/05 07:03:09;;;;;;;9.67;6.93;;;19.90;99.90;;;;;;5003145;28;20194;-83
2021/09/05 07:05:34;;;;;;;12.10;7.07;;;20.20;99.90;;;;;;5002540;28;20201;-84
2021/09/05 07:08:00;;;;;;;10.40;6.77;;;20.70;99.90;;;;;;5001977;28;20244;-85
2021/09/05 07:10:26;;;;;;;11.93;7.33;;;20.60;99.90;;;;;;5002055;28;20602;-85
2021/09/05 07:12:51;;;;;;;12.27;7.37;;;20.10;99.90;;;;;;5018312;28;20610;-84
2021/09/05 07:15:17;;;;;;;13.73;7.80;;;19.40;99.90;;;;;;5034448;28;20244;-82
2021/09/05 07:17:43;;;;;;;9.30;7.33;;;19.00;99.90;;;;;;5020108;28;20183;-82
2021/09/05 07:20:09;;;;;;;12.73;7.73;;;18.70;99.90;;;;;;5020544;28;20266;-84
2021/09/05 07:22:35;;;;;;;13.03;7.87;;;18.40;99.90;;;;;;5001545;28;20202;-85
2021/09/05 07:25:02;;;;;;;11.50;7.50;;;18.00;99.90;;;;;;5003259;28;20191;-84
2021/09/05 07:27:28;;;;;;;13.97;7.93;;;17.70;99.90;;;;;;5056760;28;20670;-83
2021/09/05 07:29:54;;;;;;;13.70;8.30;;;17.60;99.90;;;;;;5037868;28;20244;-85
2021/09/05 07:32:20;;;;;;;12.87;8.00;;;17.40;99.90;;;;;;5037509;28;20182;-85
2021/09/05 07:34:46;;;;;;;12.93;8.47;;;17.50;99.90;;;;;;5038637;28;20205;-85
2021/09/05 07:37:12;;;;;;;12.83;8.33;;;17.50;99.90;;;;;;5030167;28;20182;-85
2021/09/05 07:39:37;;;;;;;13.23;8.53;;;17.70;99.90;;;;;;5001340;28;20238;-85
2021/09/05 07:42:03;;;;;;;12.73;8.77;;;17.80;99.90;;;;;;5001496;28;20556;-86
2021/09/05 07:44:29;;;;;;;13.70;9.27;;;17.90;99.90;;;;;;5002920;28;20198;-84
2021/09/05 07:46:55;;;;;;;15.03;8.77;;;18.00;99.90;;;;;;5013807;28;20170;-84
2021/09/05 07:49:20;;;;;;;13.13;8.30;;;17.90;99.90;;;;;;5038834;28;20265;-84
2021/09/05 07:51:46;;;;;;;13.13;8.93;;;17.80;99.90;;;;;;5039867;28;20190;-85
2021/09/05 07:54:11;;;;;;;14.07;9.27;;;17.70;99.90;;;;;;5057440;28;20230;-84
2021/09/05 07:56:37;;;;;;;13.97;9.10;;;17.80;99.90;;;;;;5055942;28;20174;-85
2021/09/05 07:59:03;;;;;;;13.87;8.80;;;18.10;99.90;;;;;;5037586;28;20202;-81
2021/09/05 08:01:29;;;;;;;13.73;8.80;;;18.20;99.90;;;;;;5038375;28;20236;-84
2021/09/05 08:03:55;;;;;;;14.13;8.60;;;18.30;99.90;;;;;;5038465;28;20174;-85
2021/09/05 08:06:23;;;;;;;13.43;9.07;;;18.30;99.90;;;;;;5037499;28;20624;-84
2021/09/05 08:08:49;;;;;;;15.57;9.30;;;18.20;99.90;;;;;;5037799;28;20180;-86
2021/09/05 08:11:14;;;;;;;16.07;9.33;;;18.30;99.90;;;;;;5019299;28;20300;-85
2021/09/05 08:13:40;;;;;;;15.27;8.60;;;18.40;99.90;;;;;;5015909;28;20647;-85
2021/09/05 08:16:06;;;;;;;14.93;9.07;;;18.50;99.90;;;;;;5015595;28;20239;-86
2021/09/05 08:18:35;;;;;;;13.73;9.23;;;18.50;99.90;;;;;;5021710;28;20179;-84
2021/09/05 08:21:01;;;;;;;11.57;8.80;;;18.70;99.90;;;;;;5001492;28;20581;-84
2021/09/05 08:23:26;;;;;;;12.10;9.17;;;18.90;99.90;;;;;;5001393;28;20235;-85
2021/09/05 08:25:52;;;;;;;14.43;9.30;;;18.90;99.90;;;;;;5017549;28;20190;-86
2021/09/05 08:28:18;;;;;;;13.40;9.17;;;18.80;99.90;;;;;;5001930;28;20182;-82
2021/09/05 08:30:44;;;;;;;12.27;8.87;;;18.80;99.90;;;;;;5021507;28;20182;-84
2021/09/05 08:33:10;;;;;;;14.97;9.20;;;18.90;99.90;;;;;;5001307;28;20178;-83
2021/09/05 08:35:36;;;;;;;12.47;9.17;;;19.20;99.90;;;;;;5004558;28;20271;-83
2021/09/05 08:38:02;;;;;;;16.27;9.93;;;19.20;99.90;;;;;;5020928;28;20224;-82
2021/09/05 08:40:29;;;;;;;13.30;8.73;;;19.30;99.90;;;;;;5023370;28;20245;-86
2021/09/05 08:42:54;;;;;;;13.40;9.77;;;19.50;99.90;;;;;;5024358;28;20213;-85
2021/09/05 08:45:20;;;;;;;13.50;8.83;;;19.90;99.90;;;;;;5036404;28;20309;-81
2021/09/05 08:47:46;;;;;;;14.93;9.00;;;19.70;99.90;;;;;;5024253;28;20253;-84
2021/09/05 08:50:12;;;;;;;12.43;9.13;;;19.70;99.90;;;;;;5002898;28;20194;-83
2021/09/05 08:52:38;;;;;;;13.30;9.00;;;19.80;99.90;;;;;;5004572;28;20179;-83
2021/09/05 08:55:04;;;;;;;14.17;9.27;;;19.80;99.90;;;;;;5036033;28;20209;-83
2021/09/05 08:57:30;;;;;;;13.30;9.70;;;19.80;99.90;;;;;;5028316;28;20187;-83
2021/09/05 08:59:55;;;;;;;13.80;9.47;;;20.00;99.90;;;;;;5018754;28;20210;-84
2021/09/05 09:02:21;;;;;;;14.67;9.00;;;20.00;99.90;;;;;;5003562;28;20182;-84
2021/09/05 09:04:50;;;;;;;14.67;9.47;;;20.00;99.90;;;;;;5024061;28;20689;-84
2021/09/05 09:07:15;;;;;;;15.10;10.10;;;20.00;99.90;;;;;;5013567;28;20182;-84
2021/09/05 09:09:58;;;;;;;14.17;9.63;;;20.10;99.90;;;;;;5047152;28;20193;-84
2021/09/05 09:12:37;;;;;;;15.73;9.53;;;20.10;99.90;;;;;;5018883;28;20182;-83
2021/09/05 09:15:16;;;;;;;13.47;9.77;;;20.20;99.90;;;;;;5007898;28;20233;-84
2021/09/05 09:17:41;;;;;;;13.40;9.97;;;20.30;99.90;;;;;;5028009;28;20183;-85
2021/09/05 09:20:07;;;;;;;14.77;9.83;;;20.50;99.90;;;;;;5012510;28;20212;-85
2021/09/05 09:22:33;;;;;;;14.70;9.43;;;20.50;99.90;;;;;;5034983;28;20186;-85
2021/09/05 09:24:59;;;;;;;14.50;9.53;;;20.50;99.90;;;;;;5005158;28;20621;-85
2021/09/05 09:27:25;;;;;;;12.83;9.43;;;20.50;99.90;;;;;;5019498;28;20554;-84
2021/09/05 09:29:53;;;;;;;13.33;9.40;;;20.40;99.90;;;;;;5001916;28;20183;-85
2021/09/05 09:32:20;;;;;;;14.13;9.47;;;20.80;99.90;;;;;;5003403;28;20671;-85
2021/09/05 09:34:46;;;;;;;13.73;9.93;;;20.70;99.90;;;;;;5003039;28;20207;-84
2021/09/05 09:37:13;;;;;;;16.23;10.13;;;20.50;99.90;;;;;;4998414;28;20190;-84
2021/09/05 09:39:50;;;;;;;15.63;10.43;;;20.30;99.90;;;;;;4998769;28;20647;-84
2021/09/05 09:42:40;;;;;;;14.27;9.90;;;20.30;99.90;;;;;;5016924;28;20221;-84
2021/09/05 09:45:13;;;;;;;13.73;9.70;;;20.20;99.90;;;;;;5019900;28;20203;-84
2021/09/05 09:47:41;;;;;;;12.53;9.60;;;20.40;99.90;;;;;;5004087;28;20570;-84
2021/09/05 09:50:08;;;;;;;13.63;9.77;;;20.70;99.90;;;;;;5036898;28;20171;-84
2021/09/05 09:52:34;;;;;;;16.03;9.60;;;20.90;99.90;;;;;;5003134;28;20688;-84
2021/09/05 09:55:00;;;;;;;15.13;9.53;;;20.90;99.90;;;;;;5002674;28;20293;-84
2021/09/05 09:57:25;;;;;;;14.60;9.60;;;21.00;99.90;;;;;;5003574;28;20645;-84
2021/09/05 09:59:51;;;;;;;13.30;9.73;;;21.20;99.90;;;;;;5003402;28;20210;-85
2021/09/05 10:02:18;;;;;;;15.57;10.53;;;21.30;99.90;;;;;;5003624;28;20199;-84
2021/09/05 10:04:49;;;;;;;12.70;9.37;;;21.30;99.90;;;;;;5004118;28;20200;-83
2021/09/05 10:07:16;;;;;;;13.50;9.67;;;21.20;99.90;;;;;;5004941;28;20244;-80
2021/09/05 10:09:42;;;;;;;14.10;9.20;;;21.20;99.90;;;;;;5005748;28;20187;-81
2021/09/05 10:12:08;;;;;;;13.77;9.40;;;21.30;99.90;;;;;;5022611;28;20197;-81
2021/09/05 10:14:35;;;;;;;13.17;9.73;;;21.20;99.90;;;;;;5005994;28;20203;-83
2021/09/05 10:17:01;;;;;;;14.93;9.50;;;21.30;99.90;;;;;;5002953;28;20194;-86
2021/09/05 10:19:27;;;;;;;13.47;10.03;;;21.30;99.90;;;;;;5031475;28;20203;-85
2021/09/05 10:21:52;;;;;;;11.30;8.73;;;21.40;99.90;;;;;;5016714;28;20278;-83
2021/09/05 10:24:18;;;;;;;15.10;9.30;;;21.50;99.90;;;;;;5032649;28;20235;-81
2021/09/05 10:27:03;;;;;;;13.10;9.47;;;21.50;99.90;;;;;;5035693;28;20186;-83
2021/09/05 10:29:29;;;;;;;17.57;9.93;;;21.60;99.90;;;;;;5018454;28;20651;-84
2021/09/05 10:31:55;;;;;;;13.93;9.60;;;21.70;99.90;;;;;;5002199;28;20194;-84
2021/09/05 10:34:40;;;;;;;13.00;9.33;;;21.80;99.90;;;;;;5037635;28;20650;-83
2021/09/05 10:37:06;;;;;;;14.17;10.07;;;21.70;99.90;;;;;;5020552;28;20228;-84
2021/09/05 10:39:32;;;;;;;12.90;9.17;;;21.60;99.90;;;;;;5037372;28;20203;-82
2021/09/05 10:41:57;;;;;;;14.30;10.00;;;21.60;99.90;;;;;;5035379;28;20171;-83
2021/09/05 10:44:23;;;;;;;15.40;9.40;;;21.60;99.90;;;;;;5022141;28;20198;-84
2021/09/05 10:46:51;;;;;;;14.47;10.40;;;21.70;99.90;;;;;;5022889;28;20190;-85
2021/09/05 10:49:18;;;;;;;13.77;9.20;;;21.70;99.90;;;;;;5010511;28;20183;-83
2021/09/05 10:51:49;;;;;;;14.97;10.20;;;21.70;99.90;;;;;;5037292;28;20576;-86
2021/09/05 10:54:22;;;;;;;14.03;9.03;;;21.70;99.90;;;;;;5004521;28;20206;-84
2021/09/05 10:56:48;;;;;;;12.07;9.40;;;21.80;99.90;;;;;;5019144;28;20673;-86
2021/09/05 10:59:16;;;;;;;13.10;9.60;;;21.80;99.90;;;;;;5019890;28;20198;-85
2021/09/05 11:01:48;;;;;;;15.33;10.13;;;22.00;99.90;;;;;;5004639;28;20658;-85
2021/09/05 11:04:16;;;;;;;16.37;10.50;;;22.10;99.90;;;;;;5040375;28;20229;-83
2021/09/05 11:06:46;;;;;;;16.03;10.43;;;22.20;99.90;;;;;;5040801;28;20259;-85
2021/09/05 11:09:18;;;;;;;15.07;9.97;;;22.20;99.90;;;;;;5036101;28;20203;-85
2021/09/05 11:12:11;;;;;;;12.80;9.40;;;22.20;99.90;;;;;;5036151;28;20175;-84
2021/09/05 11:17:12;;;;;;;14.63;10.23;;;22.20;99.90;;;;;;5038354;28;20242;-79
2021/09/05 11:19:45;;;;;;;12.00;8.90;;;22.20;99.90;;;;;;5019987;28;20234;-84
2021/09/05 11:22:11;;;;;;;14.27;9.47;;;22.20;99.90;;;;;;5040539;28;20205;-84
2021/09/05 11:24:37;;;;;;;13.67;9.70;;;22.30;99.90;;;;;;5027928;28;20205;-84
2021/09/05 11:27:10;;;;;;;18.10;10.33;;;22.30;99.90;;;;;;5019318;28;20180;-84
2021/09/05 11:29:35;;;;;;;13.60;9.43;;;22.30;99.90;;;;;;4998393;28;20642;-85
2021/09/05 11:32:03;;;;;;;12.77;9.77;;;22.40;99.90;;;;;;5020370;28;20178;-86
2021/09/05 11:34:28;;;;;;;11.90;8.93;;;22.50;99.90;;;;;;5017166;28;20229;-86
2021/09/05 11:36:54;;;;;;;14.43;9.80;;;22.60;99.90;;;;;;5014773;28;20194;-83
2021/09/05 11:39:20;;;;;;;12.73;8.63;;;22.60;99.90;;;;;;5034879;28;20716;-82
2021/09/05 11:41:53;;;;;;;12.60;9.10;;;22.70;99.90;;;;;;5001889;28;20198;-85
2021/09/05 11:44:36;;;;;;;12.23;9.03;;;22.70;99.90;;;;;;5019617;28;20209;-85
2021/09/05 11:47:06;;;;;;;14.50;8.47;;;22.70;99.90;;;;;;5020049;28;20194;-85
2021/09/05 11:49:33;;;;;;;14.33;8.73;;;22.70;99.90;;;;;;5018480;28;20183;-85
2021/09/05 11:51:59;;;;;;;11.60;8.43;;;22.80;99.90;;;;;;5002359;28;20237;-85
2021/09/05 11:54:24;;;;;;;11.00;8.70;;;22.90;99.90;;;;;;5005545;28;20202;-85
2021/09/05 11:56:50;;;;;;;12.63;8.97;;;22.90;99.90;;;;;;5011163;28;20268;-83
2021/09/05 11:59:16;;;;;;;12.30;8.90;;;23.10;99.90;;;;;;5002696;28;20211;-84
2021/09/05 12:01:53;;;;;;;11.80;8.87;;;23.10;99.90;;;;;;5023822;28;20179;-84
2021/09/05 12:04:19;;;;;;;12.03;8.97;;;23.20;99.90;;;;;;5027246;28;20248;-83
2021/09/05 12:06:45;;;;;;;12.40;9.43;;;23.30;99.90;;;;;;5027366;28;20179;-83
2021/09/05 12:09:26;;;;;;;12.37;8.80;;;23.40;99.90;;;;;;5026979;28;20182;-83
2021/09/05 12:12:04;;;;;;;12.20;8.50;;;23.40;99.90;;;;;;5029068;28;20179;-83
2021/09/05 12:14:34;;;;;;;11.13;8.90;;;23.30;99.90;;;;;;5045194;28;20199;-83
2021/09/05 12:17:26;;;;;;;13.07;8.80;;;23.30;99.90;;;;;;5029775;28;20171;-83
2021/09/05 12:19:53;;;;;;;11.30;8.33;;;23.10;99.90;;;;;;5028970;28;20689;-83
2021/09/05 12:22:18;;;;;;;10.80;8.17;;;23.30;99.90;;;;;;5029097;28;20620;-83
2021/09/05 12:24:56;;;;;;;12.23;8.10;;;23.30;99.90;;;;;;5046434;28;20199;-83
2021/09/05 12:27:21;;;;;;;11.57;8.30;;;23.20;99.90;;;;;;5045851;28;20163;-83
2021/09/05 12:29:47;;;;;;;11.33;8.37;;;23.20;99.90;;;;;;5022935;28;20214;-84
2021/09/05 12:32:14;;;;;;;11.73;7.97;;;23.20;99.90;;;;;;5021947;28;20186;-83
2021/09/05 12:34:41;;;;;;;10.55;8.50;;;23.30;99.90;;;;;;5024180;28;20202;-83
2021/09/05 12:37:20;;;;;;;12.03;8.33;;;23.30;99.90;;;;;;5034087;28;20277;-83